createdAt,value
2023-01-23T00:03:02.804Z,16.869128
2023-01-23T00:08:04.606Z,16.910868
2023-01-23T00:13:06.448Z,16.700974
2023-01-23T00:18:08.473Z,16.73521
2023-01-23T00:23:10.220Z,16.100196
2023-01-23T00:28:12.293Z,15.91835
2023-01-23T00:33:14.054Z,16.243192
2023-01-23T00:38:15.847Z,16.482586
2023-01-23T00:43:17.695Z,16.49644
2023-01-23T00:48:19.395Z,16.499792
2023-01-23T00:53:21.083Z,16.26949
2023-01-23T00:58:23.307Z,16.198168
2023-01-23T01:03:24.774Z,14.808198
2023-01-23T01:08:26.541Z,15.407104
2023-01-23T01:13:28.276Z,15.535092
2023-01-23T01:18:29.728Z,15.67897
2023-01-23T01:23:31.248Z,14.924272
2023-01-23T01:28:33.754Z,14.536156
2023-01-23T01:33:35.533Z,15.380182
2023-01-23T01:38:37.269Z,15.302672
2023-01-23T01:43:39.315Z,14.94236
2023-01-23T01:48:41.330Z,14.814372
2023-01-23T01:53:43.246Z,15.09533
2023-01-23T01:58:45.641Z,14.491132
2023-01-23T02:03:47.111Z,14.837766
2023-01-23T02:08:48.825Z,14.668812
2023-01-23T02:13:50.738Z,13.713488
2023-01-23T02:18:52.598Z,13.74554
2023-01-23T02:23:54.284Z,13.845372
2023-01-23T02:28:56.676Z,13.539528
2023-01-23T02:33:58.465Z,13.457432
2023-01-23T02:39:00.351Z,13.626644
2023-01-23T02:44:02.458Z,13.628232
2023-01-23T02:49:04.420Z,12.92457
2023-01-23T02:54:06.346Z,13.21276
2023-01-23T02:59:08.722Z,13.842278
2023-01-23T03:04:10.530Z,14.101958
2023-01-23T03:09:12.255Z,13.556572
2023-01-23T03:14:14.139Z,13.09917
2023-01-23T03:19:16.056Z,13.108776
2023-01-23T03:24:17.705Z,12.898272
2023-01-23T03:29:20.555Z,13.586302
2023-01-23T03:34:22.448Z,13.405528
2023-01-23T03:39:24.259Z,13.48833
2023-01-23T03:44:25.798Z,13.759924
2023-01-23T03:49:27.396Z,13.627702
2023-01-23T03:54:28.983Z,13.134382
2023-01-23T03:59:30.751Z,13.108518
2023-01-23T04:04:32.211Z,13.125114
2023-01-23T04:09:33.902Z,13.491954
2023-01-23T04:14:35.541Z,14.519032
2023-01-23T04:19:37.121Z,14.18997
2023-01-23T04:24:38.960Z,14.137714
2023-01-23T04:29:40.746Z,14.204082
2023-01-23T04:34:42.201Z,14.225984
2023-01-23T04:39:43.740Z,14.38795
2023-01-23T04:44:45.488Z,14.880226
2023-01-23T04:49:47.365Z,15.017916
2023-01-23T04:54:48.992Z,15.402328
2023-01-23T04:59:50.822Z,15.029396
2023-01-23T05:04:52.679Z,15.755408
2023-01-23T05:09:54.152Z,17.438806
2023-01-23T05:14:55.766Z,17.557024
2023-01-23T05:19:57.523Z,18.41211
2023-01-23T05:24:58.956Z,18.875986
2023-01-23T05:30:01.065Z,18.677002
2023-01-23T05:35:02.672Z,19.277184
2023-01-23T05:40:04.251Z,20.753296
2023-01-23T05:45:05.962Z,21.08073
2023-01-23T05:50:07.417Z,21.162378
2023-01-23T05:55:08.958Z,21.33843
2023-01-23T06:00:10.620Z,21.123732
2023-01-23T06:05:12.151Z,22.93382
2023-01-23T06:10:13.887Z,22.654612
2023-01-23T06:15:15.608Z,21.59518
2023-01-23T06:20:17.667Z,21.915748
2023-01-23T06:25:19.654Z,23.170148
2023-01-23T06:30:22.825Z,22.824748
2023-01-23T06:35:24.851Z,24.253694
2023-01-23T06:40:26.466Z,24.680676
2023-01-23T06:45:27.955Z,25.390434
2023-01-23T06:50:29.558Z,25.249378
2023-01-23T06:55:30.990Z,25.758998
2023-01-23T07:00:32.801Z,26.17146
2023-01-23T07:05:34.294Z,26.550852
2023-01-23T07:10:35.763Z,25.094942
2023-01-23T07:15:39.078Z,25.829858
2023-01-23T07:20:42.105Z,26.331526
2023-01-23T07:25:43.875Z,25.707392
2023-01-23T07:30:46.190Z,28.007646
2023-01-23T07:35:47.934Z,28.241356
2023-01-23T07:40:49.914Z,26.818948
2023-01-23T07:45:51.935Z,28.318608
2023-01-23T07:50:54.135Z,27.738154
2023-01-23T07:55:56.118Z,29.234952
2023-01-23T08:00:58.233Z,27.5329
2023-01-23T08:06:00.338Z,28.371814
2023-01-23T08:11:02.441Z,28.833494
2023-01-23T08:16:04.762Z,27.728452
2023-01-23T08:21:06.571Z,29.313724
2023-01-23T08:26:08.560Z,30.23384
2023-01-23T08:31:10.695Z,29.44771
2023-01-23T08:36:12.577Z,30.678802
2023-01-23T08:41:14.608Z,28.491608
2023-01-23T08:46:16.610Z,31.049592
2023-01-23T08:51:18.418Z,29.242456
2023-01-23T08:56:20.273Z,31.190634
2023-01-23T09:01:22.615Z,30.672832
2023-01-23T09:06:24.473Z,30.6545
2023-01-23T09:11:26.394Z,31.291242
2023-01-23T09:16:28.218Z,30.145122
2023-01-23T09:21:30.009Z,31.737086
2023-01-23T09:26:31.461Z,32.243396
2023-01-23T09:31:33.261Z,32.6356
2023-01-23T09:36:42.989Z,31.21642
2023-01-23T09:41:45.124Z,31.277128
2023-01-23T09:46:46.909Z,32.433438
2023-01-23T09:51:49.022Z,32.053584
2023-01-23T09:56:50.723Z,31.60223
2023-01-23T10:01:52.742Z,32.520828
2023-01-23T10:06:54.448Z,32.005248
2023-01-23T10:11:56.274Z,33.041496
2023-01-23T10:16:58.108Z,32.704248
2023-01-23T10:21:59.870Z,33.821276
2023-01-23T10:27:01.708Z,32.101472
2023-01-23T10:32:03.747Z,32.675766
2023-01-23T10:37:05.474Z,30.029456
2023-01-23T10:42:07.507Z,31.351044
2023-01-23T10:47:09.346Z,32.593234
2023-01-23T10:52:11.162Z,33.456658
2023-01-23T10:57:12.972Z,33.206366
2023-01-23T11:02:15.319Z,31.886936
2023-01-23T11:07:17.282Z,33.089394
2023-01-23T11:12:19.160Z,32.379568
2023-01-23T11:17:21.066Z,32.244484
2023-01-23T11:22:23.112Z,32.509784
2023-01-23T11:27:24.945Z,33.348508
2023-01-23T11:32:27.073Z,31.831328
2023-01-23T11:37:28.705Z,32.38265
2023-01-23T11:42:30.450Z,32.744862
2023-01-23T11:47:32.106Z,33.165536
2023-01-23T11:52:33.707Z,33.738298
2023-01-23T11:57:35.429Z,32.664724
2023-01-23T12:02:38.466Z,32.717264
2023-01-23T12:07:40.768Z,33.40302
2023-01-23T12:12:42.448Z,33.310554
2023-01-23T12:17:44.192Z,33.974464
2023-01-23T12:22:45.645Z,33.624178
2023-01-23T12:27:47.152Z,31.71258
2023-01-23T12:32:48.830Z,32.590128
2023-01-23T12:37:50.309Z,32.434756
2023-01-23T12:42:52.147Z,32.857858
2023-01-23T12:47:54.012Z,32.616616
2023-01-23T12:52:55.919Z,33.115424
2023-01-23T12:58:00.157Z,32.52304
2023-01-23T13:03:11.608Z,33.194888
2023-01-23T13:08:14.270Z,31.969034
2023-01-23T13:13:16.152Z,32.55128
2023-01-23T13:18:18.108Z,33.395514
2023-01-23T13:23:19.957Z,32.498534
2023-01-23T13:28:22.232Z,31.447932
2023-01-23T13:33:24.484Z,32.683936
2023-01-23T13:38:26.471Z,31.875022
2023-01-23T13:43:28.082Z,32.485084
2023-01-23T14:31:37.632Z,31.399622
2023-01-23T14:36:39.596Z,31.460536
2023-01-23T14:41:43.758Z,30.897288
2023-01-23T14:46:46.786Z,31.588552
2023-01-23T14:51:48.756Z,30.081996
2023-01-23T14:56:50.544Z,30.77413
2023-01-23T15:01:52.636Z,30.838354
2023-01-23T15:06:54.636Z,30.364068
2023-01-23T15:11:57.544Z,30.564452
2023-01-23T15:16:59.641Z,30.05726
2023-01-23T15:22:01.482Z,30.345954
2023-01-23T15:27:03.365Z,30.246842
2023-01-23T15:32:05.328Z,30.07779
2023-01-23T15:37:07.243Z,29.797292
2023-01-23T15:42:09.227Z,29.957956
2023-01-23T15:47:11.035Z,29.68206
2023-01-23T15:52:13.114Z,28.475462
2023-01-23T15:57:15.045Z,29.431794
2023-01-23T16:02:29.598Z,28.989492
2023-01-23T16:07:32.516Z,28.68955
2023-01-23T16:12:34.333Z,28.598402
2023-01-23T16:17:36.090Z,28.16165
2023-01-23T16:22:37.953Z,28.160768
2023-01-23T16:27:39.780Z,27.342398
2023-01-23T16:32:41.708Z,27.508572
2023-01-23T16:37:43.931Z,27.034326
2023-01-23T16:42:46.051Z,27.292786
2023-01-23T16:47:47.851Z,26.95379
2023-01-23T16:52:49.755Z,26.94649
2023-01-23T16:57:51.525Z,26.123954
2023-01-23T17:02:53.449Z,25.971636
2023-01-23T17:07:55.041Z,25.620318
2023-01-23T17:12:56.773Z,25.397858
2023-01-23T17:17:58.481Z,24.934632
2023-01-23T17:23:00.287Z,24.924034
2023-01-23T17:28:12.208Z,24.643062
2023-01-23T17:33:14.735Z,24.428146
2023-01-23T17:38:16.450Z,24.20589
2023-01-23T17:43:18.095Z,24.450658
2023-01-23T17:48:19.832Z,23.882594
2023-01-23T17:53:21.705Z,24.124472
2023-01-23T17:58:23.297Z,24.577832
2023-01-23T18:03:25.566Z,23.544534
2023-01-23T18:08:27.397Z,23.729922
2023-01-23T18:13:29.298Z,23.803632
2023-01-23T18:18:30.816Z,23.039542
2023-01-23T18:23:32.333Z,22.873382
2023-01-23T18:28:33.920Z,23.111542
2023-01-23T18:33:35.554Z,22.497138
2023-01-23T18:38:37.067Z,22.462264
2023-01-23T18:43:38.786Z,22.658684
2023-01-23T18:48:40.630Z,22.274732
2023-01-23T18:53:42.380Z,21.981656
2023-01-23T18:58:44.096Z,21.947664
2023-01-23T19:03:45.779Z,22.27693
2023-01-23T19:08:47.345Z,22.384578
2023-01-23T19:13:49.004Z,21.793812
2023-01-23T19:18:50.633Z,22.047414
2023-01-23T19:23:52.315Z,22.674614
2023-01-23T19:28:53.842Z,21.959334
2023-01-23T19:33:56.006Z,21.785236
2023-01-23T19:38:57.479Z,21.613988
2023-01-23T19:43:59.463Z,21.061828
2023-01-23T19:49:02.963Z,21.500112
2023-01-23T19:54:05.432Z,20.924368
2023-01-23T19:59:07.262Z,21.032748
2023-01-23T20:04:09.341Z,20.671702
2023-01-23T20:09:11.308Z,20.26262
2023-01-23T20:14:13.337Z,20.694662
2023-01-23T20:19:15.336Z,20.314442
2023-01-23T20:24:17.306Z,21.37154
2023-01-23T20:29:19.289Z,21.14045
2023-01-23T20:34:21.447Z,20.744096
2023-01-23T20:39:23.365Z,20.20385
2023-01-23T20:44:26.144Z,20.757136
2023-01-23T20:49:28.132Z,20.203036
2023-01-23T20:54:30.084Z,20.139476
2023-01-23T20:59:31.758Z,19.489778
2023-01-23T21:04:33.514Z,19.43991
2023-01-23T21:09:35.201Z,20.409592
2023-01-23T21:14:37.075Z,19.782596
2023-01-23T21:19:38.566Z,19.423138
2023-01-23T21:24:40.257Z,19.896906
2023-01-23T21:29:41.716Z,19.91437
2023-01-23T21:34:43.370Z,19.52818
2023-01-23T21:39:44.861Z,19.485802
2023-01-23T21:44:46.512Z,19.57452
2023-01-23T21:49:48.428Z,19.562172
2023-01-23T21:54:50.036Z,19.31834
2023-01-23T21:59:52.082Z,19.301568
2023-01-23T22:04:54.210Z,19.425336
2023-01-23T22:09:56.043Z,19.50214
2023-01-23T22:14:58.440Z,19.025902
2023-01-23T22:20:00.373Z,19.500254
2023-01-23T22:25:02.442Z,19.314188
2023-01-23T22:30:04.401Z,19.14161
2023-01-23T22:35:06.289Z,18.607566
2023-01-23T22:40:08.088Z,18.645954
2023-01-23T22:45:10.526Z,19.033298
2023-01-23T22:50:12.354Z,19.092434
2023-01-23T22:55:14.276Z,18.757876
2023-01-23T23:00:16.097Z,18.942992
2023-01-23T23:05:18.319Z,18.880762
2023-01-23T23:10:20.152Z,18.738838
2023-01-23T23:15:22.503Z,18.871874
2023-01-23T23:20:24.654Z,19.114688
2023-01-23T23:25:26.596Z,18.02231
2023-01-23T23:30:28.388Z,18.4778
2023-01-23T23:35:30.345Z,18.613482
2023-01-23T23:40:31.842Z,18.544698
2023-01-23T23:45:33.687Z,18.563872
2023-01-23T23:50:35.803Z,18.127366
2023-01-23T23:55:37.234Z,18.728308
